Time;durP1;ratioP1;P1;durP2;ratioP2;P2;SDS_P1;SDS_P2;PMS_P1;PMS_P2;Temp;Humidity;BMP_temperature;BMP_pressure;BME280_temperature;BME280_humidity;BME280_pressure;Samples;Min_cycle;Max_cycle;Signal;HPM_P1;HPM_P2
2023/07/06 00:00:53;;;;;;;0.83;0.83;;;;;14.40;96202.00;;;;5033761;28;20675;-54
2023/07/06 00:03:23;;;;;;;0.73;0.73;;;;;14.20;96210.00;;;;5033902;28;20205;-54
2023/07/06 00:05:52;;;;;;;0.60;0.60;;;;;14.20;96201.00;;;;5033477;28;20220;-54
2023/07/06 00:08:20;;;;;;;1.17;1.07;;;;;14.10;96209.00;;;;5033895;28;20253;-55
2023/07/06 00:10:49;;;;;;;0.60;0.60;;;;;14.20;96207.00;;;;5033667;28;20197;-55
2023/07/06 00:13:17;;;;;;;0.60;0.60;;;;;14.10;96201.00;;;;5033591;28;20239;-55
2023/07/06 00:15:44;;;;;;;0.60;0.60;;;;;14.10;96215.00;;;;5033321;28;20379;-54
2023/07/06 00:18:13;;;;;;;0.70;0.70;;;;;14.20;96211.00;;;;5033372;28;20196;-54
2023/07/06 00:20:40;;;;;;;0.60;0.60;;;;;14.30;96209.00;;;;5033361;28;20751;-54
2023/07/06 00:23:11;;;;;;;0.60;0.60;;;;;14.30;96215.00;;;;5032083;28;20216;-55
2023/07/06 00:25:41;;;;;;;1.03;1.03;;;;;14.20;96223.00;;;;5033299;28;20755;-55
2023/07/06 00:28:09;;;;;;;0.53;0.53;;;;;14.10;96220.00;;;;5033570;28;20200;-55
2023/07/06 00:30:53;;;;;;;1.80;1.47;;;;;14.10;96217.00;;;;5033431;28;20189;-60
2023/07/06 00:33:23;;;;;;;0.93;0.93;;;;;14.00;96212.00;;;;5033309;28;20267;-54
2023/07/06 00:35:51;;;;;;;0.90;0.90;;;;;13.90;96217.00;;;;5033027;28;20232;-54
2023/07/06 00:38:21;;;;;;;0.97;0.97;;;;;14.00;96221.00;;;;5033179;28;20189;-54
2023/07/06 00:40:51;;;;;;;1.17;1.13;;;;;13.90;96213.00;;;;5033149;28;20185;-55
2023/07/06 00:43:21;;;;;;;1.13;1.13;;;;;13.90;96214.00;;;;5033063;28;20188;-55
2023/07/06 00:45:53;;;;;;;1.10;1.10;;;;;13.90;96214.00;;;;5033225;28;20231;-55
2023/07/06 00:48:27;;;;;;;0.80;0.80;;;;;14.00;96206.00;;;;5033276;28;20280;-55
2023/07/06 00:51:06;;;;;;;0.87;0.87;;;;;14.00;96204.00;;;;5033064;28;20184;-54
2023/07/06 00:53:38;;;;;;;0.70;0.70;;;;;13.90;96207.00;;;;5033338;28;20203;-55
2023/07/06 00:56:08;;;;;;;0.63;0.63;;;;;13.80;96205.00;;;;5033069;28;20242;-56
2023/07/06 00:58:39;;;;;;;1.17;1.17;;;;;13.70;96205.00;;;;5033169;28;20192;-55
2023/07/06 01:01:09;;;;;;;1.10;1.10;;;;;13.40;96205.00;;;;5032892;28;20189;-55
2023/07/06 01:03:43;;;;;;;0.70;0.70;;;;;13.40;96198.00;;;;5032868;28;20200;-55
2023/07/06 01:06:14;;;;;;;0.90;0.90;;;;;13.30;96203.00;;;;5032659;28;20216;-54
2023/07/06 01:08:43;;;;;;;1.07;1.07;;;;;13.30;96201.00;;;;5032882;28;20192;-55
2023/07/06 01:11:14;;;;;;;0.80;0.80;;;;;13.40;96203.00;;;;5033133;28;20193;-56
2023/07/06 01:13:48;;;;;;;1.07;1.07;;;;;13.50;96193.00;;;;5033494;28;20189;-56
2023/07/06 01:16:20;;;;;;;1.00;1.00;;;;;13.50;96189.00;;;;5032741;28;20715;-59
2023/07/06 01:18:56;;;;;;;0.53;0.53;;;;;13.60;96192.00;;;;5033184;28;20177;-55
2023/07/06 01:21:32;;;;;;;0.90;0.90;;;;;13.50;96186.00;;;;5032892;28;20243;-55
2023/07/06 01:24:31;;;;;;;0.63;0.63;;;;;13.70;96186.00;;;;5035817;28;20208;-55
2023/07/06 01:27:25;;;;;;;0.70;0.70;;;;;13.80;96196.00;;;;5036888;28;20177;-55
2023/07/06 01:30:18;;;;;;;0.90;0.90;;;;;13.80;96189.00;;;;5036777;28;20204;-55
2023/07/06 01:32:53;;;;;;;0.83;0.83;;;;;13.60;96185.00;;;;5036630;28;20204;-55
2023/07/06 01:35:30;;;;;;;0.67;0.67;;;;;13.60;96193.00;;;;5036572;28;20273;-56
2023/07/06 01:37:58;;;;;;;1.77;1.57;;;;;13.30;96197.00;;;;5036775;28;20563;-54
2023/07/06 01:40:26;;;;;;;1.17;1.17;;;;;13.20;96186.00;;;;5036393;28;20193;-54
2023/07/06 01:42:53;;;;;;;0.63;0.63;;;;;13.30;96185.00;;;;5036393;28;20250;-55
2023/07/06 01:45:24;;;;;;;0.60;0.60;;;;;13.20;96178.00;;;;5036315;28;20218;-54
2023/07/06 01:47:57;;;;;;;0.70;0.70;;;;;13.30;96175.00;;;;5036427;28;20185;-55
2023/07/06 01:50:36;;;;;;;0.73;0.73;;;;;13.40;96178.00;;;;5036382;28;20647;-55
2023/07/06 01:53:11;;;;;;;0.97;0.97;;;;;13.40;96182.00;;;;5036571;28;20184;-55
2023/07/06 01:55:43;;;;;;;0.80;0.80;;;;;13.50;96187.00;;;;5036368;28;20664;-55
2023/07/06 01:58:23;;;;;;;0.93;0.93;;;;;13.40;96182.00;;;;5036255;28;20239;-55
2023/07/06 02:00:55;;;;;;;0.97;0.97;;;;;13.50;96184.00;;;;5036452;28;20185;-55
2023/07/06 02:03:25;;;;;;;0.83;0.83;;;;;13.50;96188.00;;;;5035957;28;20644;-53
2023/07/06 02:05:53;;;;;;;0.80;0.80;;;;;13.40;96189.00;;;;5057787;22;20238;-55
2023/07/06 02:08:21;;;;;;;0.50;0.50;;;;;13.50;96180.00;;;;5054618;28;20196;-56
2023/07/06 02:10:48;;;;;;;0.97;0.97;;;;;13.50;96184.00;;;;5056024;28;20211;-55
2023/07/06 02:13:16;;;;;;;0.80;0.80;;;;;13.50;96181.00;;;;5055784;28;20222;-55
2023/07/06 02:15:44;;;;;;;1.43;1.33;;;;;13.50;96178.00;;;;5055809;28;20224;-55
2023/07/06 02:18:12;;;;;;;0.77;0.77;;;;;13.40;96178.00;;;;5055696;28;20195;-55
2023/07/06 02:20:40;;;;;;;1.10;1.10;;;;;13.40;96184.00;;;;5055632;28;20552;-56
2023/07/06 02:23:11;;;;;;;0.60;0.60;;;;;13.30;96183.00;;;;5055600;28;20195;-55
2023/07/06 02:25:39;;;;;;;0.63;0.63;;;;;13.20;96187.00;;;;5055504;28;20254;-55
2023/07/06 02:28:08;;;;;;;0.50;0.50;;;;;13.10;96185.00;;;;5056050;28;20192;-55
2023/07/06 02:30:37;;;;;;;1.07;0.73;;;;;13.10;96186.00;;;;5055941;28;20191;-56
2023/07/06 02:33:05;;;;;;;0.80;0.80;;;;;13.20;96188.00;;;;5055379;28;20196;-55
2023/07/06 02:35:33;;;;;;;0.70;0.70;;;;;13.30;96187.00;;;;5054837;28;20231;-56
2023/07/06 02:38:02;;;;;;;0.80;0.80;;;;;13.30;96183.00;;;;5055348;28;20287;-55
2023/07/06 02:40:31;;;;;;;0.80;0.80;;;;;13.30;96178.00;;;;5055467;28;20283;-55
2023/07/06 02:42:59;;;;;;;0.87;0.87;;;;;13.20;96178.00;;;;5055190;28;20227;-55
2023/07/06 02:45:27;;;;;;;0.87;0.87;;;;;13.20;96179.00;;;;5055317;28;20216;-55
2023/07/06 02:47:55;;;;;;;0.60;0.60;;;;;13.20;96174.00;;;;5055433;28;20350;-55
2023/07/06 02:50:23;;;;;;;20.07;1.23;;;;;13.30;96171.00;;;;5055044;28;20647;-55
2023/07/06 02:52:50;;;;;;;0.70;0.70;;;;;13.30;96172.00;;;;5055020;28;20227;-55
2023/07/06 02:55:21;;;;;;;0.60;0.60;;;;;13.10;96164.00;;;;5055286;28;20240;-55
2023/07/06 02:57:49;;;;;;;1.10;1.00;;;;;13.10;96165.00;;;;5055135;28;20184;-55
2023/07/06 03:00:17;;;;;;;0.77;0.77;;;;;13.00;96174.00;;;;5054929;28;20192;-56
2023/07/06 03:02:45;;;;;;;1.60;1.43;;;;;12.90;96177.00;;;;5054854;28;20280;-56
2023/07/06 03:05:12;;;;;;;1.67;0.90;;;;;12.90;96175.00;;;;5054800;28;20544;-56
2023/07/06 03:07:41;;;;;;;1.50;1.00;;;;;12.90;96177.00;;;;5054809;28;20176;-56
2023/07/06 03:10:10;;;;;;;0.60;0.60;;;;;12.90;96169.00;;;;5054722;28;20210;-56
2023/07/06 03:12:39;;;;;;;0.80;0.80;;;;;12.90;96167.00;;;;5054943;28;20188;-55
2023/07/06 03:15:10;;;;;;;0.60;0.60;;;;;12.80;96171.00;;;;5054527;28;20224;-56
2023/07/06 03:17:38;;;;;;;0.90;0.90;;;;;12.60;96165.00;;;;5054861;28;20191;-56
2023/07/06 03:20:13;;;;;;;1.20;1.20;;;;;12.60;96159.00;;;;5054742;28;20196;-56
2023/07/06 03:22:41;;;;;;;2.93;1.43;;;;;12.60;96164.00;;;;5054777;28;20172;-56
2023/07/06 03:25:10;;;;;;;1.10;1.10;;;;;12.60;96165.00;;;;5054359;28;20299;-56
2023/07/06 03:27:40;;;;;;;1.03;1.00;;;;;12.60;96165.00;;;;5054636;28;20603;-56
2023/07/06 03:30:11;;;;;;;1.03;1.03;;;;;12.50;96161.00;;;;5053099;28;20667;-58
2023/07/06 03:32:39;;;;;;;0.80;0.80;;;;;12.60;96161.00;;;;5052989;28;20200;-57
2023/07/06 03:35:09;;;;;;;0.70;0.70;;;;;12.60;96160.00;;;;5054294;28;20216;-56
2023/07/06 03:37:37;;;;;;;0.83;0.83;;;;;12.50;96164.00;;;;5054427;28;20563;-56
2023/07/06 03:40:05;;;;;;;0.60;0.60;;;;;12.60;96162.00;;;;5054834;28;20282;-56
2023/07/06 03:42:33;;;;;;;1.10;1.10;;;;;12.50;96159.00;;;;5054872;28;20235;-56
2023/07/06 03:45:05;;;;;;;0.57;0.57;;;;;12.40;96155.00;;;;5053983;28;20196;-56
2023/07/06 03:47:33;;;;;;;0.80;0.80;;;;;12.30;96157.00;;;;5053312;28;20180;-56
2023/07/06 03:50:01;;;;;;;0.50;0.50;;;;;12.40;96160.00;;;;5054465;28;20200;-56
2023/07/06 03:52:28;;;;;;;0.97;0.97;;;;;12.50;96153.00;;;;5054297;28;20548;-56
2023/07/06 03:54:59;;;;;;;0.80;0.80;;;;;12.50;96156.00;;;;5053499;28;20196;-56
2023/07/06 03:57:27;;;;;;;1.17;1.17;;;;;12.40;96154.00;;;;5052451;28;20184;-56
2023/07/06 03:59:56;;;;;;;0.83;0.83;;;;;12.30;96159.00;;;;5053606;28;20224;-60
2023/07/06 04:02:25;;;;;;;1.03;1.03;;;;;12.40;96159.00;;;;5053787;28;20222;-56
2023/07/06 04:04:53;;;;;;;0.60;0.60;;;;;12.20;96158.00;;;;5053488;28;20283;-56
2023/07/06 04:07:21;;;;;;;0.50;0.50;;;;;12.30;96159.00;;;;5053818;28;20338;-56
2023/07/06 04:09:48;;;;;;;1.43;1.30;;;;;12.50;96164.00;;;;5053455;28;20709;-57
2023/07/06 04:12:16;;;;;;;1.03;1.03;;;;;12.50;96167.00;;;;5053720;28;20587;-56
2023/07/06 04:14:43;;;;;;;0.87;0.87;;;;;12.50;96160.00;;;;5053673;28;20607;-57
2023/07/06 04:17:11;;;;;;;2.33;1.10;;;;;12.60;96170.00;;;;5053494;28;20212;-56
2023/07/06 04:19:39;;;;;;;0.80;0.80;;;;;12.70;96174.00;;;;5053370;28;20221;-57
2023/07/06 04:22:07;;;;;;;1.33;1.23;;;;;12.80;96174.00;;;;5053360;28;20192;-57
2023/07/06 04:24:35;;;;;;;1.00;1.00;;;;;12.90;96176.00;;;;5053260;28;20262;-57
2023/07/06 04:27:02;;;;;;;0.80;0.80;;;;;12.70;96167.00;;;;5051947;28;20590;-58
2023/07/06 04:29:30;;;;;;;0.70;0.70;;;;;12.60;96176.00;;;;5053553;28;20370;-56
2023/07/06 04:31:57;;;;;;;0.70;0.70;;;;;12.60;96171.00;;;;5053456;28;20278;-57
2023/07/06 04:34:25;;;;;;;0.60;0.60;;;;;12.50;96176.00;;;;5053356;28;20574;-57
2023/07/06 04:36:53;;;;;;;1.27;1.20;;;;;12.60;96170.00;;;;5052884;28;20215;-56
2023/07/06 04:39:21;;;;;;;0.70;0.70;;;;;12.70;96178.00;;;;5053563;28;20261;-54
2023/07/06 04:41:49;;;;;;;0.67;0.67;;;;;12.80;96169.00;;;;5053633;28;20238;-62
2023/07/06 04:44:18;;;;;;;1.17;1.10;;;;;12.50;96178.00;;;;5053071;28;20196;-56
2023/07/06 04:46:45;;;;;;;1.20;1.17;;;;;12.70;96173.00;;;;5052965;28;20576;-56
2023/07/06 04:49:13;;;;;;;1.00;1.00;;;;;12.70;96170.00;;;;5053132;28;20283;-57
2023/07/06 04:51:40;;;;;;;0.97;0.90;;;;;12.80;96164.00;;;;5051622;28;20690;-57
2023/07/06 04:54:09;;;;;;;0.90;0.90;;;;;13.00;96171.00;;;;5052901;28;20309;-56
2023/07/06 04:56:37;;;;;;;0.60;0.60;;;;;13.20;96167.00;;;;5052893;28;20216;-57
2023/07/06 04:59:05;;;;;;;0.87;0.87;;;;;13.10;96173.00;;;;5052530;28;20259;-57
2023/07/06 05:01:32;;;;;;;0.60;0.60;;;;;13.10;96170.00;;;;5052753;28;20667;-57
2023/07/06 05:04:01;;;;;;;0.60;0.60;;;;;13.30;96167.00;;;;5052745;28;20604;-57
2023/07/06 05:06:28;;;;;;;1.03;1.03;;;;;13.20;96172.00;;;;5052740;28;20220;-55
2023/07/06 05:08:56;;;;;;;0.83;0.83;;;;;13.20;96177.00;;;;5051528;28;20231;-56
2023/07/06 05:11:26;;;;;;;1.07;1.03;;;;;13.20;96185.00;;;;5052705;28;20262;-57
2023/07/06 05:13:53;;;;;;;1.00;1.00;;;;;13.20;96180.00;;;;5053323;28;20181;-56
2023/07/06 05:16:21;;;;;;;0.97;0.97;;;;;13.30;96177.00;;;;5051268;28;20219;-58
2023/07/06 05:18:49;;;;;;;0.70;0.70;;;;;13.30;96182.00;;;;5051414;28;20199;-57
2023/07/06 05:21:16;;;;;;;1.43;1.20;;;;;13.40;96181.00;;;;5052875;28;20608;-57
2023/07/06 05:23:44;;;;;;;1.37;1.27;;;;;13.50;96188.00;;;;5052648;28;20683;-57
2023/07/06 05:26:12;;;;;;;0.90;0.90;;;;;13.70;96181.00;;;;5052717;28;20211;-57
2023/07/06 05:28:41;;;;;;;0.90;0.90;;;;;13.60;96182.00;;;;5051189;28;20200;-57
2023/07/06 05:31:08;;;;;;;0.70;0.70;;;;;13.60;96183.00;;;;5052526;28;20199;-56
2023/07/06 05:33:35;;;;;;;1.53;1.43;;;;;13.80;96190.00;;;;5052485;28;20188;-56
2023/07/06 05:36:03;;;;;;;0.80;0.80;;;;;13.80;96194.00;;;;5052319;28;20274;-56
2023/07/06 05:38:31;;;;;;;0.60;0.60;;;;;14.00;96187.00;;;;5052463;28;20195;-56
2023/07/06 05:41:03;;;;;;;0.70;0.70;;;;;14.10;96185.00;;;;5052704;28;20196;-56
2023/07/06 05:43:31;;;;;;;16.13;1.03;;;;;14.20;96193.00;;;;5052515;28;20237;-57
2023/07/06 05:45:59;;;;;;;0.63;0.63;;;;;14.30;96185.00;;;;5052266;28;20207;-57
2023/07/06 05:48:27;;;;;;;1.00;1.00;;;;;14.40;96193.00;;;;5052641;28;20197;-57
2023/07/06 05:50:54;;;;;;;0.60;0.60;;;;;14.50;96185.00;;;;5052534;28;20203;-56
2023/07/06 05:53:22;;;;;;;0.80;0.80;;;;;14.60;96194.00;;;;5052277;28;20192;-56
2023/07/06 05:55:50;;;;;;;4.77;1.57;;;;;14.80;96192.00;;;;5050759;28;20209;-56
2023/07/06 05:58:17;;;;;;;0.80;0.80;;;;;14.90;96190.00;;;;5052236;28;20210;-56
2023/07/06 06:00:45;;;;;;;0.60;0.60;;;;;14.90;96199.00;;;;5052233;28;20196;-56
2023/07/06 06:03:16;;;;;;;0.77;0.77;;;;;15.00;96200.00;;;;5052201;28;20202;-57
2023/07/06 06:05:43;;;;;;;0.83;0.83;;;;;15.00;96196.00;;;;5052360;28;20638;-57
2023/07/06 06:08:11;;;;;;;2.90;1.20;;;;;15.10;96210.00;;;;5052163;28;20708;-57
2023/07/06 06:10:39;;;;;;;0.60;0.60;;;;;15.20;96206.00;;;;5054200;28;20192;-57
2023/07/06 06:13:06;;;;;;;0.87;0.87;;;;;15.30;96209.00;;;;5055740;28;20199;-56
2023/07/06 06:15:34;;;;;;;0.60;0.60;;;;;15.40;96206.00;;;;5055787;28;20220;-58
2023/07/06 06:18:02;;;;;;;0.80;0.80;;;;;15.40;96208.00;;;;5055573;28;20251;-56
2023/07/06 06:20:31;;;;;;;0.70;0.70;;;;;15.60;96213.00;;;;5054432;28;20759;-57
2023/07/06 06:23:00;;;;;;;0.60;0.60;;;;;15.70;96212.00;;;;5055512;28;20663;-57
2023/07/06 06:25:28;;;;;;;0.60;0.60;;;;;15.70;96213.00;;;;5055780;28;20224;-57
2023/07/06 06:27:56;;;;;;;0.50;0.50;;;;;15.70;96212.00;;;;5055486;28;20198;-57
2023/07/06 06:30:23;;;;;;;0.93;0.93;;;;;15.90;96214.00;;;;5055397;28;20246;-57
2023/07/06 06:32:50;;;;;;;16.50;1.03;;;;;16.00;96213.00;;;;5055415;28;20608;-57
2023/07/06 06:35:22;;;;;;;1.03;0.80;;;;;16.10;96213.00;;;;5055325;28;20204;-57
2023/07/06 06:37:51;;;;;;;1.00;1.00;;;;;16.20;96214.00;;;;5055232;28;20208;-57
2023/07/06 06:40:20;;;;;;;1.07;1.07;;;;;16.20;96223.00;;;;5055227;28;20722;-57
2023/07/06 06:42:48;;;;;;;0.60;0.60;;;;;16.20;96218.00;;;;5055419;28;20228;-57
2023/07/06 06:45:16;;;;;;;0.93;0.93;;;;;16.20;96219.00;;;;5055149;28;20718;-57
2023/07/06 06:47:44;;;;;;;1.90;1.80;;;;;16.40;96212.00;;;;5055334;28;20188;-58
2023/07/06 06:50:14;;;;;;;0.60;0.60;;;;;16.60;96214.00;;;;5056440;28;20604;-57
2023/07/06 06:52:41;;;;;;;2.23;2.13;;;;;16.70;96214.00;;;;5055312;28;20219;-57
2023/07/06 06:55:11;;;;;;;2.60;2.40;;;;;16.90;96214.00;;;;5053822;28;20234;-57
2023/07/06 06:57:38;;;;;;;2.60;1.23;;;;;16.90;96215.00;;;;5055400;28;20231;-57
2023/07/06 07:00:09;;;;;;;0.80;0.80;;;;;17.10;96211.00;;;;5054952;28;20191;-57
2023/07/06 07:02:38;;;;;;;0.60;0.60;;;;;17.20;96219.00;;;;5054851;28;20180;-57
2023/07/06 07:05:06;;;;;;;1.40;0.90;;;;;17.40;96212.00;;;;5055007;28;20311;-57
2023/07/06 07:07:37;;;;;;;1.70;1.30;;;;;17.40;96209.00;;;;5054993;28;20177;-57
2023/07/06 07:10:09;;;;;;;2.73;0.87;;;;;17.60;96215.00;;;;5054742;28;20180;-57
2023/07/06 07:12:38;;;;;;;0.57;0.57;;;;;17.60;96207.00;;;;5054887;28;20587;-57
2023/07/06 07:15:08;;;;;;;0.93;0.93;;;;;17.80;96209.00;;;;5054480;28;20212;-57
2023/07/06 07:17:36;;;;;;;1.17;1.13;;;;;17.90;96199.00;;;;5054421;28;20585;-57
2023/07/06 07:20:03;;;;;;;0.67;0.67;;;;;18.10;96202.00;;;;5054506;28;20215;-57
2023/07/06 07:22:32;;;;;;;1.17;1.00;;;;;17.90;96211.00;;;;5054496;28;20231;-57
2023/07/06 07:25:00;;;;;;;0.73;0.73;;;;;18.20;96199.00;;;;5054335;28;20196;-57
2023/07/06 07:27:28;;;;;;;0.73;0.73;;;;;18.40;96206.00;;;;5054285;28;20189;-57
2023/07/06 07:29:58;;;;;;;3.40;0.97;;;;;18.60;96200.00;;;;5054593;28;20207;-57
2023/07/06 07:32:28;;;;;;;0.70;0.70;;;;;18.70;96198.00;;;;5054455;28;20613;-57
2023/07/06 07:34:56;;;;;;;0.63;0.63;;;;;18.80;96203.00;;;;5054606;28;20198;-57
2023/07/06 07:37:23;;;;;;;0.60;0.60;;;;;19.10;96203.00;;;;5052843;28;20224;-57
2023/07/06 07:39:51;;;;;;;1.50;1.13;;;;;19.20;96202.00;;;;5053985;28;20561;-57
2023/07/06 07:42:19;;;;;;;0.77;0.77;;;;;19.10;96206.00;;;;5054147;28;20199;-57
2023/07/06 07:44:47;;;;;;;0.70;0.70;;;;;18.70;96201.00;;;;5054234;28;20204;-57
2023/07/06 07:47:18;;;;;;;0.50;0.50;;;;;18.80;96210.00;;;;5054295;28;20198;-57
2023/07/06 07:49:46;;;;;;;0.70;0.70;;;;;19.00;96201.00;;;;5053926;28;20192;-57
2023/07/06 07:52:14;;;;;;;0.97;0.97;;;;;19.10;96200.00;;;;5053840;28;20196;-58
2023/07/06 07:54:43;;;;;;;1.03;1.03;;;;;19.00;96199.00;;;;5054081;28;20544;-57
2023/07/06 07:57:11;;;;;;;0.70;0.70;;;;;19.20;96206.00;;;;5054043;28;20637;-57
2023/07/06 07:59:38;;;;;;;1.40;0.77;;;;;19.30;96203.00;;;;5053994;28;20200;-57
2023/07/06 08:02:07;;;;;;;0.63;0.63;;;;;19.50;96204.00;;;;5054000;28;20196;-57
2023/07/06 08:04:36;;;;;;;1.17;1.17;;;;;19.60;96214.00;;;;5052336;28;20619;-57
2023/07/06 08:07:04;;;;;;;0.97;0.97;;;;;19.90;96200.00;;;;5053487;28;20219;-57
2023/07/06 08:09:32;;;;;;;1.43;1.33;;;;;19.70;96183.00;;;;5053513;28;20213;-57
2023/07/06 08:12:02;;;;;;;0.93;0.93;;;;;19.80;96198.00;;;;5054017;28;20227;-57
2023/07/06 08:14:37;;;;;;;0.77;0.77;;;;;20.00;96212.00;;;;5053492;28;20192;-57
2023/07/06 08:17:05;;;;;;;0.50;0.50;;;;;20.10;96211.00;;;;5053330;28;20226;-59
2023/07/06 08:19:33;;;;;;;1.17;1.17;;;;;20.20;96202.00;;;;5053448;28;20278;-57
2023/07/06 08:22:02;;;;;;;0.70;0.70;;;;;20.40;96201.00;;;;5053386;28;20219;-57
2023/07/06 08:24:29;;;;;;;1.27;0.80;;;;;20.40;96204.00;;;;5053244;28;20197;-57
2023/07/06 08:26:57;;;;;;;1.17;0.73;;;;;20.70;96206.00;;;;5053238;28;20217;-59
2023/07/06 08:29:25;;;;;;;1.33;0.90;;;;;21.00;96198.00;;;;5053240;28;20199;-60
2023/07/06 08:31:52;;;;;;;0.70;0.70;;;;;21.30;96190.00;;;;5053032;28;20192;-57
2023/07/06 08:34:20;;;;;;;0.93;0.93;;;;;21.40;96192.00;;;;5052698;28;20196;-57
2023/07/06 08:36:49;;;;;;;0.63;0.63;;;;;21.70;96194.00;;;;5052881;28;20224;-57
2023/07/06 08:39:18;;;;;;;0.53;0.53;;;;;21.70;96196.00;;;;5053530;28;20204;-56
2023/07/06 08:41:47;;;;;;;0.50;0.50;;;;;21.90;96199.00;;;;5052972;28;20188;-58
2023/07/06 08:44:16;;;;;;;1.27;1.27;;;;;21.80;96203.00;;;;5053199;28;20532;-55
2023/07/06 08:46:48;;;;;;;1.17;1.17;;;;;21.70;96208.00;;;;5052909;28;20219;-56
2023/07/06 08:49:24;;;;;;;0.88;0.88;;;;;21.60;96204.00;;;;5053083;28;20263;-56
2023/07/06 08:51:53;;;;;;;0.80;0.80;;;;;21.30;96213.00;;;;5052846;28;20238;-56
2023/07/06 08:54:25;;;;;;;0.93;0.93;;;;;21.10;96202.00;;;;5052794;28;20203;-56
2023/07/06 08:56:53;;;;;;;0.45;0.45;;;;;21.30;96195.00;;;;5052646;28;20224;-56
2023/07/06 08:59:33;;;;;;;1.00;1.00;;;;;21.20;96203.00;;;;5052669;28;20195;-56
2023/07/06 09:02:09;;;;;;;0.85;0.85;;;;;21.10;96199.00;;;;5053108;28;20187;-57
2023/07/06 09:04:38;;;;;;;0.65;0.65;;;;;21.30;96197.00;;;;5053116;28;20180;-57
2023/07/06 09:07:12;;;;;;;4.50;0.98;;;;;21.30;96201.00;;;;5052461;28;20270;-57
2023/07/06 09:09:42;;;;;;;0.60;0.60;;;;;21.40;96212.00;;;;5052687;28;20190;-57
2023/07/06 09:12:18;;;;;;;0.73;0.73;;;;;20.90;96216.00;;;;5052543;28;20192;-56
2023/07/06 09:14:50;;;;;;;0.70;0.70;;;;;20.90;96208.00;;;;5052598;28;20282;-56
2023/07/06 09:17:18;;;;;;;0.77;0.77;;;;;21.20;96205.00;;;;5052593;28;20271;-55
2023/07/06 09:19:47;;;;;;;0.70;0.70;;;;;21.20;96213.00;;;;5052811;28;20635;-57
2023/07/06 09:22:14;;;;;;;0.60;0.60;;;;;21.30;96218.00;;;;5051048;28;20662;-55
2023/07/06 09:24:47;;;;;;;0.90;0.90;;;;;21.20;96214.00;;;;5052427;28;20196;-57
2023/07/06 09:27:20;;;;;;;0.55;0.55;;;;;21.20;96222.00;;;;5052985;28;20173;-57
2023/07/06 09:30:00;;;;;;;0.60;0.60;;;;;21.40;96210.00;;;;5052534;28;20191;-57
2023/07/06 09:32:32;;;;;;;0.70;0.65;;;;;21.70;96207.00;;;;5052602;28;20611;-56
2023/07/06 09:35:06;;;;;;;0.73;0.73;;;;;21.80;96215.00;;;;5052319;28;20226;-56
2023/07/06 09:37:33;;;;;;;0.50;0.50;;;;;21.30;96207.00;;;;5052614;28;20200;-56
2023/07/06 09:40:05;;;;;;;0.50;0.50;;;;;21.00;96208.00;;;;5052415;28;20250;-56
2023/07/06 09:42:33;;;;;;;0.50;0.50;;;;;21.30;96204.00;;;;5052385;28;20200;-56
2023/07/06 09:45:03;;;;;;;1.48;1.13;;;;;21.90;96208.00;;;;5053460;28;20207;-57
2023/07/06 09:47:34;;;;;;;0.60;0.60;;;;;22.30;96205.00;;;;5056419;28;20220;-56
2023/07/06 09:50:07;;;;;;;0.88;0.85;;;;;22.50;96208.00;;;;5056142;28;20198;-55
2023/07/06 09:52:40;;;;;;;0.70;0.70;;;;;22.70;96201.00;;;;5056111;28;20180;-55
2023/07/06 09:55:19;;;;;;;0.60;0.60;;;;;22.40;96191.00;;;;5056483;28;20208;-55
2023/07/06 09:57:48;;;;;;;1.00;1.00;;;;;22.10;96200.00;;;;5055894;28;20620;-57
2023/07/06 10:00:18;;;;;;;0.65;0.65;;;;;22.20;96201.00;;;;5054633;28;20743;-55
2023/07/06 10:02:56;;;;;;;0.75;0.75;;;;;22.20;96205.00;;;;5055925;28;20192;-56
2023/07/06 10:05:32;;;;;;;0.50;0.50;;;;;22.70;96200.00;;;;5055727;28;20224;-56
2023/07/06 10:08:11;;;;;;;0.52;0.52;;;;;22.80;96199.00;;;;5054507;28;20658;-56
2023/07/06 10:10:49;;;;;;;0.80;0.77;;;;;22.90;96212.00;;;;5055778;28;20195;-56
2023/07/06 10:13:27;;;;;;;0.75;0.75;;;;;23.10;96207.00;;;;5056190;28;20199;-57
2023/07/06 10:16:02;;;;;;;0.70;0.70;;;;;23.20;96220.00;;;;5055499;28;20219;-56
2023/07/06 10:18:33;;;;;;;0.50;0.50;;;;;23.10;96209.00;;;;5055936;28;20265;-56
2023/07/06 10:21:08;;;;;;;0.70;0.70;;;;;23.10;96210.00;;;;5055605;28;20191;-56
2023/07/06 10:23:52;;;;;;;0.73;0.73;;;;;23.10;96217.00;;;;5055741;28;20180;-56
2023/07/06 10:26:28;;;;;;;0.50;0.50;;;;;22.80;96234.00;;;;5055629;28;20234;-57
2023/07/06 10:29:00;;;;;;;1.20;1.10;;;;;22.20;96239.00;;;;5055272;28;20214;-57
2023/07/06 10:31:33;;;;;;;1.25;1.15;;;;;22.00;96233.00;;;;5055761;28;20180;-57
2023/07/06 10:34:06;;;;;;;0.68;0.68;;;;;22.40;96218.00;;;;5055801;28;20568;-57
2023/07/06 10:36:36;;;;;;;0.50;0.50;;;;;22.80;96212.00;;;;5055271;28;20216;-57
2023/07/06 10:39:13;;;;;;;0.70;0.70;;;;;23.10;96210.00;;;;5055060;28;20277;-57
2023/07/06 10:41:48;;;;;;;0.50;0.50;;;;;23.60;96205.00;;;;5055756;28;20191;-57
2023/07/06 10:44:45;;;;;;;0.50;0.50;;;;;24.10;96200.00;;;;5055469;28;20562;-57
2023/07/06 10:47:37;;;;;;;0.80;0.80;;;;;24.40;96202.00;;;;5055422;28;20582;-57
2023/07/06 10:50:23;;;;;;;0.47;0.47;;;;;24.40;96210.00;;;;5055391;28;20580;-57
2023/07/06 10:52:59;;;;;;;0.77;0.77;;;;;24.60;96210.00;;;;5055267;28;20184;-57
2023/07/06 10:55:31;;;;;;;0.50;0.50;;;;;24.80;96201.00;;;;5054533;28;20675;-57
2023/07/06 10:58:21;;;;;;;6.88;1.02;;;;;25.00;96206.00;;;;5055108;28;20204;-57
2023/07/06 11:00:50;;;;;;;0.60;0.60;;;;;25.20;96208.00;;;;5055099;28;20250;-57
2023/07/06 11:03:22;;;;;;;0.60;0.60;;;;;25.40;96205.00;;;;5054962;28;20650;-57
2023/07/06 11:05:56;;;;;;;0.82;0.82;;;;;25.10;96216.00;;;;5054645;28;20299;-57
2023/07/06 11:08:56;;;;;;;0.50;0.50;;;;;24.40;96216.00;;;;5054835;28;20200;-57
2023/07/06 11:11:29;;;;;;;2.05;1.25;;;;;24.00;96214.00;;;;5053284;28;20223;-57
2023/07/06 11:14:12;;;;;;;0.80;0.80;;;;;23.90;96221.00;;;;5054815;28;20177;-58
2023/07/06 11:16:50;;;;;;;10.68;1.05;;;;;23.80;96231.00;;;;5053157;28;20674;-57
2023/07/06 11:19:24;;;;;;;0.80;0.80;;;;;23.70;96233.00;;;;5054307;28;20200;-58
2023/07/06 11:21:55;;;;;;;0.75;0.75;;;;;23.50;96230.00;;;;5054413;28;20176;-57
2023/07/06 11:24:29;;;;;;;0.75;0.75;;;;;23.30;96246.00;;;;5054759;28;20188;-57
2023/07/06 11:26:59;;;;;;;0.70;0.70;;;;;23.20;96212.00;;;;5054499;28;20548;-57
2023/07/06 11:29:30;;;;;;;0.93;0.93;;;;;23.70;96206.00;;;;5054842;28;20546;-56
2023/07/06 11:32:10;;;;;;;0.95;0.95;;;;;24.50;96203.00;;;;5054481;28;20523;-56
2023/07/06 11:34:48;;;;;;;0.80;0.80;;;;;25.00;96202.00;;;;5054397;28;20234;-56
2023/07/06 11:37:24;;;;;;;0.60;0.60;;;;;25.60;96204.00;;;;5052826;28;20560;-56
2023/07/06 11:40:00;;;;;;;0.55;0.55;;;;;25.80;96199.00;;;;5054143;28;20177;-56
2023/07/06 11:42:42;;;;;;;0.98;0.93;;;;;26.20;96197.00;;;;5054217;28;20184;-56
2023/07/06 11:45:22;;;;;;;0.65;0.65;;;;;26.20;96196.00;;;;5054311;28;20227;-56
2023/07/06 11:48:00;;;;;;;0.52;0.52;;;;;25.80;96215.00;;;;5054099;28;20601;-56
2023/07/06 11:50:35;;;;;;;0.60;0.60;;;;;25.80;96209.00;;;;5053820;28;20187;-56
2023/07/06 11:53:17;;;;;;;0.47;0.47;;;;;25.80;96217.00;;;;5054074;28;20670;-56
2023/07/06 11:55:54;;;;;;;0.80;0.80;;;;;26.30;96189.00;;;;5053947;28;20567;-58
2023/07/06 11:58:31;;;;;;;0.80;0.80;;;;;26.50;96205.00;;;;5053618;28;20659;-57
2023/07/06 12:01:10;;;;;;;0.98;0.93;;;;;26.50;96190.00;;;;5053829;28;20196;-56
2023/07/06 12:03:38;;;;;;;0.82;0.82;;;;;26.90;96192.00;;;;5053606;28;20180;-56
2023/07/06 12:06:06;;;;;;;0.70;0.70;;;;;27.10;96209.00;;;;5053091;28;20224;-56
2023/07/06 12:08:37;;;;;;;0.95;0.95;;;;;26.60;96212.00;;;;5052558;28;20211;-56
2023/07/06 12:11:07;;;;;;;1.02;0.95;;;;;25.80;96210.00;;;;5053504;28;20709;-58
2023/07/06 12:13:39;;;;;;;0.70;0.70;;;;;26.10;96193.00;;;;5053765;28;20188;-56
2023/07/06 12:16:15;;;;;;;0.60;0.60;;;;;26.30;96219.00;;;;5053310;28;20277;-56
2023/07/06 12:18:44;;;;;;;0.70;0.70;;;;;25.50;96219.00;;;;5053287;28;20683;-56
2023/07/06 12:21:26;;;;;;;0.70;0.70;;;;;24.70;96217.00;;;;5053019;28;20682;-56
2023/07/06 12:23:55;;;;;;;0.82;0.82;;;;;24.60;96184.00;;;;5053246;28;20176;-56
2023/07/06 12:26:22;;;;;;;1.45;1.00;;;;;25.30;96187.00;;;;5052301;28;20215;-56
2023/07/06 12:28:50;;;;;;;0.88;0.82;;;;;25.70;96180.00;;;;5053143;28;20195;-56
2023/07/06 12:31:19;;;;;;;0.90;0.90;;;;;26.00;96187.00;;;;5053043;28;20203;-56
2023/07/06 12:33:46;;;;;;;0.50;0.50;;;;;26.70;96180.00;;;;5053098;28;20196;-56
2023/07/06 12:36:14;;;;;;;0.80;0.80;;;;;26.50;96176.00;;;;5052909;28;20212;-56